City Of Vicksburg — WDC2660 — position and weather

sailwx.info

Track history (hours):
 
Tides and Currents Weather Stations Pressure Air Temp Water Temp Dewpoint Dewpoint Depression Visibility Wind Speed Wind Dir Waves Ship Positions

City Of Vicksburg

Owner: Kirby Inland Marine LP, Houston, TX. More information available from US FCC via Universal Licensing System and Coast Guard Vessel Documentation Center.

Last reported at 2016-Aug-27 17:16 UTC. Time now 2016-Aug-30 20:53 UTC.
Position N 32°40' W 091°08'.

Length 50 m; draft 2.9 m.

Type: Ship (hazmat cat A). MMSI: 366996120.

Date/timePositionNaut miles runAvg speedWind from/ knotsBaromVisibWave heightAir tempDewpointWater temp
2016-Aug-27 17:16N 32°40' W 091°08'3 4.1
2016-Aug-27 16:33N 32°37' W 091°09'4 4.3
2016-Aug-27 15:33N 32°34' W 091°06'4 4.2
2016-Aug-27 14:33N 32°30' W 091°07'4 4.2
2016-Aug-27 13:33N 32°27' W 091°04'4 4.2
2016-Aug-27 12:33N 32°24' W 090°60'3 3.4
2016-Aug-27 11:33N 32°21' W 090°59'2 2.1
2016-Aug-27 10:33N 32°21' W 090°57'3 3.0
2016-Aug-27 09:33N 32°19' W 090°54'5 4.5
2016-Aug-27 08:33N 32°16' W 090°58'4 4.0
2016-Aug-27 07:33N 32°12' W 090°59'4 4.2
2016-Aug-27 06:33N 32°08' W 091°01'5 1.6
2016-Aug-27 03:22N 32°03' W 091°03'4 4.7
2016-Aug-27 02:33N 31°60' W 091°05'4 4.4
2016-Aug-27 01:33N 31°59' W 091°10'4 3.8
2016-Aug-27 00:32N 31°55' W 091°12'9 4.0
2016-Aug-26 22:23N 31°51' W 091°20'  
2016-Aug-24 07:34N 31°43' W 091°23'8 7.7
2016-Aug-24 06:34N 31°50' W 091°21'13 6.4
2016-Aug-24 04:33N 31°59' W 091°10'7 7.0
2016-Aug-24 03:34N 32°03' W 091°03'4 4.0
2016-Aug-24 02:32N 32°08' W 091°03'6 6.7
2016-Aug-24 01:33N 32°13' W 090°59'8 7.6
2016-Aug-24 00:33N 32°19' W 090°54'6 6.1
2016-Aug-23 23:33N 32°23' W 090°60'7 6.9
2016-Aug-23 22:33N 32°28' W 091°06'7 7.3
2016-Aug-23 21:34N 32°35' W 091°07'  
Track history (hours):
 
Tides and Currents Weather Stations Pressure Air Temp Water Temp Dewpoint Dewpoint Depression Visibility Wind Speed Wind Dir Waves Ship Positions

City Of Vicksburg

Owner: Kirby Inland Marine LP, Houston, TX. More information available from US FCC via Universal Licensing System and Coast Guard Vessel Documentation Center.

Last reported at 2016-Aug-27 17:16 UTC. Time now 2016-Aug-30 20:53 UTC.
Position N 32°40' W 091°08'.

Length 50 m; draft 2.9 m.

Type: Ship (hazmat cat A). MMSI: 366996120.

Date/timePositionNaut miles runAvg speedWind from/ knotsBaromVisibWave heightAir tempDewpointWater temp
2016-Aug-27 17:16N 32°40' W 091°08'3 4.1
2016-Aug-27 16:33N 32°37' W 091°09'4 4.3
2016-Aug-27 15:33N 32°34' W 091°06'4 4.2
2016-Aug-27 14:33N 32°30' W 091°07'4 4.2
2016-Aug-27 13:33N 32°27' W 091°04'4 4.2
2016-Aug-27 12:33N 32°24' W 090°60'3 3.4
2016-Aug-27 11:33N 32°21' W 090°59'2 2.1
2016-Aug-27 10:33N 32°21' W 090°57'3 3.0
2016-Aug-27 09:33N 32°19' W 090°54'5 4.5
2016-Aug-27 08:33N 32°16' W 090°58'4 4.0
2016-Aug-27 07:33N 32°12' W 090°59'4 4.2
2016-Aug-27 06:33N 32°08' W 091°01'5 1.6
2016-Aug-27 03:22N 32°03' W 091°03'4 4.7
2016-Aug-27 02:33N 31°60' W 091°05'4 4.4
2016-Aug-27 01:33N 31°59' W 091°10'4 3.8
2016-Aug-27 00:32N 31°55' W 091°12'9 4.0
2016-Aug-26 22:23N 31°51' W 091°20'  
2016-Aug-24 07:34N 31°43' W 091°23'8 7.7
2016-Aug-24 06:34N 31°50' W 091°21'13 6.4
2016-Aug-24 04:33N 31°59' W 091°10'7 7.0
2016-Aug-24 03:34N 32°03' W 091°03'4 4.0
2016-Aug-24 02:32N 32°08' W 091°03'6 6.7
2016-Aug-24 01:33N 32°13' W 090°59'8 7.6
2016-Aug-24 00:33N 32°19' W 090°54'6 6.1
2016-Aug-23 23:33N 32°23' W 090°60'7 6.9
2016-Aug-23 22:33N 32°28' W 091°06'7 7.3
2016-Aug-23 21:34N 32°35' W 091°07'  

Dump ship's entire track history